createdAt,value
2022-10-31T00:00:14.993Z,1.65
2022-10-31T00:02:41.816Z,2.22
2022-10-31T00:05:08.608Z,1.60
2022-10-31T00:07:35.401Z,1.63
2022-10-31T00:10:01.992Z,1.77
2022-10-31T00:12:28.665Z,2.08
2022-10-31T00:14:55.283Z,2.08
2022-10-31T00:17:21.929Z,1.98
2022-10-31T00:19:48.557Z,2.20
2022-10-31T00:22:15.132Z,2.08
2022-10-31T00:24:41.845Z,2.13
2022-10-31T00:27:08.489Z,1.85
2022-10-31T00:29:35.101Z,1.55
2022-10-31T00:32:01.756Z,2.08
2022-10-31T00:34:28.433Z,1.85
2022-10-31T00:36:55.040Z,2.05
2022-10-31T00:39:21.716Z,1.77
2022-10-31T00:41:48.627Z,1.63
2022-10-31T00:44:15.280Z,1.45
2022-10-31T00:46:41.897Z,1.50
2022-10-31T00:49:08.824Z,1.90
2022-10-31T00:51:35.530Z,1.83
2022-10-31T00:54:02.200Z,2.33
2022-10-31T00:56:29.103Z,1.80
2022-10-31T00:58:55.837Z,1.83
2022-10-31T01:01:22.519Z,2.00
2022-10-31T01:03:49.373Z,1.90
2022-10-31T01:06:16.046Z,2.00
2022-10-31T01:08:42.663Z,1.80
2022-10-31T01:11:11.335Z,1.67
2022-10-31T01:13:38.001Z,1.67
2022-10-31T01:16:05.922Z,1.83
2022-10-31T01:18:32.560Z,1.85
2022-10-31T01:21:07.340Z,1.50
2022-10-31T01:23:34.141Z,1.87
2022-10-31T01:26:15.134Z,2.40
2022-10-31T01:28:46.990Z,1.80
2022-10-31T01:31:13.748Z,1.85
2022-10-31T01:33:40.454Z,1.73
2022-10-31T01:36:14.031Z,1.52
2022-10-31T01:38:40.868Z,2.10
2022-10-31T01:41:07.427Z,1.55
2022-10-31T01:43:54.340Z,2.00
2022-10-31T01:46:30.045Z,1.90
2022-10-31T01:48:56.659Z,2.00
2022-10-31T01:51:25.879Z,2.25
2022-10-31T01:53:52.943Z,1.60
2022-10-31T01:56:19.512Z,1.77
2022-10-31T01:58:46.669Z,1.85
2022-10-31T02:01:13.729Z,2.00
2022-10-31T02:03:40.605Z,2.15
2022-10-31T02:06:08.765Z,1.92
2022-10-31T02:08:36.589Z,1.92
2022-10-31T02:11:03.514Z,2.22
2022-10-31T02:13:30.170Z,2.33
2022-10-31T02:15:58.694Z,1.95
2022-10-31T02:18:26.058Z,2.15
2022-10-31T02:21:16.462Z,2.25
2022-10-31T02:24:04.617Z,2.35
2022-10-31T02:26:50.335Z,1.98
2022-10-31T02:29:40.839Z,2.47
2022-10-31T02:32:28.415Z,2.13
2022-10-31T02:35:16.213Z,2.35
2022-10-31T02:37:50.258Z,2.13
2022-10-31T02:40:20.017Z,1.50
2022-10-31T02:42:59.235Z,1.55
2022-10-31T02:45:34.637Z,1.98
2022-10-31T02:48:03.336Z,1.67
2022-10-31T02:50:32.512Z,2.00
2022-10-31T02:52:59.220Z,1.77
2022-10-31T02:55:25.688Z,1.90
2022-10-31T02:57:53.806Z,2.00
2022-10-31T03:00:20.426Z,2.00
2022-10-31T03:02:59.116Z,2.03
2022-10-31T03:05:37.636Z,1.73
2022-10-31T03:08:16.220Z,1.85
2022-10-31T03:10:44.566Z,1.88
2022-10-31T03:13:20.857Z,1.92
2022-10-31T03:15:50.571Z,2.00
2022-10-31T03:18:30.871Z,1.73
2022-10-31T03:21:05.535Z,2.20
2022-10-31T03:23:33.560Z,2.10
2022-10-31T03:26:00.831Z,1.95
2022-10-31T03:28:31.565Z,1.90
2022-10-31T03:30:58.231Z,2.40
2022-10-31T03:33:28.196Z,2.08
2022-10-31T03:35:55.962Z,2.03
2022-10-31T03:38:22.841Z,1.80
2022-10-31T03:40:49.610Z,1.83
2022-10-31T03:43:18.653Z,1.75
2022-10-31T03:45:46.602Z,1.98
2022-10-31T03:48:14.475Z,1.75
2022-10-31T03:50:47.051Z,1.80
2022-10-31T03:53:30.842Z,1.42
2022-10-31T03:56:12.988Z,1.70
2022-10-31T03:58:49.300Z,1.88
2022-10-31T04:01:17.176Z,2.00
2022-10-31T04:03:43.905Z,2.25
2022-10-31T04:06:11.555Z,1.83
2022-10-31T04:08:49.383Z,1.77
2022-10-31T04:11:16.232Z,1.55
2022-10-31T04:13:42.895Z,1.70
2022-10-31T04:16:12.691Z,2.20
2022-10-31T04:18:42.701Z,1.88
2022-10-31T04:21:09.510Z,1.92
2022-10-31T04:23:36.911Z,2.10
2022-10-31T04:26:03.614Z,1.80
2022-10-31T04:28:30.213Z,1.52
2022-10-31T04:30:56.899Z,2.00
2022-10-31T04:33:23.534Z,1.77
2022-10-31T04:35:50.199Z,1.90
2022-10-31T04:38:16.781Z,2.05
2022-10-31T04:40:43.430Z,2.03
2022-10-31T04:43:10.434Z,2.63
2022-10-31T04:45:37.839Z,2.30
2022-10-31T04:48:04.891Z,2.20
2022-10-31T04:50:31.605Z,2.22
2022-10-31T04:52:58.306Z,2.17
2022-10-31T04:55:24.918Z,2.03
2022-10-31T04:57:51.604Z,1.83
2022-10-31T05:00:19.460Z,2.03
2022-10-31T05:02:48.954Z,2.92
2022-10-31T05:05:16.305Z,2.00
2022-10-31T05:07:43.381Z,1.83
2022-10-31T05:10:14.267Z,1.90
2022-10-31T05:12:54.242Z,1.60
2022-10-31T05:15:21.728Z,1.83
2022-10-31T05:17:48.436Z,2.08
2022-10-31T05:20:15.875Z,1.85
2022-10-31T05:22:50.145Z,1.85
2022-10-31T05:25:16.959Z,1.80
2022-10-31T05:27:44.944Z,1.88
2022-10-31T05:30:12.673Z,1.65
2022-10-31T05:32:42.610Z,1.75
2022-10-31T05:35:11.742Z,1.50
2022-10-31T05:37:38.530Z,1.73
2022-10-31T05:40:10.049Z,1.60
2022-10-31T05:42:36.665Z,1.20
2022-10-31T05:45:03.455Z,1.65
2022-10-31T05:47:30.085Z,1.90
2022-10-31T05:49:56.766Z,1.90
2022-10-31T05:52:23.390Z,1.80
2022-10-31T05:54:50.213Z,2.20
2022-10-31T05:57:16.885Z,2.00
2022-10-31T05:59:43.935Z,2.03
2022-10-31T06:02:10.639Z,1.55
2022-10-31T06:04:37.373Z,1.95
2022-10-31T06:07:04.033Z,1.70
2022-10-31T06:09:30.653Z,1.90
2022-10-31T06:11:57.316Z,2.17
2022-10-31T06:14:23.890Z,1.80
2022-10-31T06:16:50.608Z,1.58
2022-10-31T06:19:17.219Z,1.88
2022-10-31T06:21:44.084Z,1.60
2022-10-31T06:24:10.805Z,1.83
2022-10-31T06:26:37.451Z,1.88
2022-10-31T06:29:04.387Z,1.90
2022-10-31T06:31:31.207Z,2.38
2022-10-31T06:33:57.893Z,2.20
2022-10-31T06:36:24.786Z,2.15
2022-10-31T06:38:51.463Z,1.98
2022-10-31T06:41:18.061Z,2.20
2022-10-31T06:43:47.481Z,1.75
2022-10-31T06:46:14.164Z,2.20
2022-10-31T06:48:43.959Z,2.05
2022-10-31T06:51:11.022Z,1.73
2022-10-31T06:53:37.626Z,1.77
2022-10-31T06:56:04.445Z,1.70
2022-10-31T06:58:31.109Z,3.50
2022-10-31T07:01:00.824Z,11.63
2022-10-31T07:03:27.467Z,5.10
2022-10-31T07:05:56.298Z,3.38
2022-10-31T07:08:23.152Z,2.70
2022-10-31T07:10:54.362Z,2.30
2022-10-31T07:13:21.166Z,2.58
2022-10-31T07:15:47.838Z,2.40
2022-10-31T07:18:14.449Z,3.00
2022-10-31T07:20:41.198Z,2.30
2022-10-31T07:23:09.287Z,1.92
2022-10-31T07:25:35.894Z,1.98
2022-10-31T07:28:02.898Z,2.28
2022-10-31T07:30:29.852Z,2.25
2022-10-31T07:32:56.549Z,2.47
2022-10-31T07:35:24.810Z,2.30
2022-10-31T07:37:51.602Z,2.55
2022-10-31T07:40:18.458Z,3.08
2022-10-31T07:42:46.543Z,2.50
2022-10-31T07:45:15.540Z,2.10
2022-10-31T07:47:45.095Z,2.22
2022-10-31T07:50:14.579Z,1.90
2022-10-31T07:52:41.674Z,1.92
2022-10-31T07:55:08.408Z,2.35
2022-10-31T07:57:35.071Z,2.20
2022-10-31T08:00:01.862Z,1.90
2022-10-31T08:02:28.734Z,1.92
2022-10-31T08:04:58.592Z,2.00
2022-10-31T08:07:27.879Z,2.13
2022-10-31T08:09:54.720Z,2.08
2022-10-31T08:12:22.719Z,1.90
2022-10-31T08:14:49.762Z,2.10
2022-10-31T08:17:16.436Z,2.03
2022-10-31T08:19:43.148Z,2.08
2022-10-31T08:22:09.978Z,2.13
2022-10-31T08:24:36.724Z,2.47
2022-10-31T08:27:03.365Z,2.13
2022-10-31T08:29:31.015Z,2.47
2022-10-31T08:31:58.855Z,2.28
2022-10-31T08:34:25.630Z,2.40
2022-10-31T08:36:53.019Z,2.08
2022-10-31T08:39:19.657Z,2.30
2022-10-31T08:41:48.011Z,2.08
2022-10-31T08:44:14.769Z,2.72
2022-10-31T08:46:41.327Z,2.47
2022-10-31T08:49:08.034Z,2.80
2022-10-31T08:51:34.667Z,2.60
2022-10-31T08:54:01.328Z,2.22
2022-10-31T08:56:27.962Z,2.22
2022-10-31T08:58:54.717Z,2.40
2022-10-31T09:01:21.564Z,2.25
2022-10-31T09:03:49.940Z,2.30
2022-10-31T09:06:16.737Z,2.30
2022-10-31T09:08:43.394Z,2.50
2022-10-31T09:11:10.016Z,2.33
2022-10-31T09:13:41.320Z,2.28
2022-10-31T09:16:08.340Z,3.10
2022-10-31T09:18:34.969Z,3.00
2022-10-31T09:21:01.714Z,3.38
2022-10-31T09:23:28.363Z,3.40
2022-10-31T09:25:55.083Z,3.50
2022-10-31T09:28:23.345Z,3.25
2022-10-31T09:30:51.518Z,6.05
2022-10-31T09:33:18.451Z,3.85
2022-10-31T09:35:45.097Z,3.05
2022-10-31T09:38:12.368Z,3.08
2022-10-31T09:40:47.049Z,3.28
2022-10-31T09:43:20.907Z,3.43
2022-10-31T09:46:08.522Z,3.22
2022-10-31T09:49:05.988Z,2.60
2022-10-31T09:51:38.549Z,2.78
2022-10-31T09:54:13.556Z,2.55
2022-10-31T09:56:40.266Z,2.83
2022-10-31T09:59:20.174Z,2.47
2022-10-31T10:01:50.725Z,2.72
2022-10-31T10:04:38.593Z,2.80
2022-10-31T10:07:15.307Z,3.03
2022-10-31T10:09:41.992Z,2.80
2022-10-31T10:12:17.798Z,3.78
2022-10-31T10:14:59.302Z,3.13
2022-10-31T10:17:37.650Z,3.88
2022-10-31T10:20:23.004Z,4.15
2022-10-31T10:22:59.410Z,3.97
2022-10-31T10:25:39.667Z,3.47
2022-10-31T10:28:22.433Z,3.30
2022-10-31T10:30:56.818Z,3.80
2022-10-31T10:33:31.658Z,3.53
2022-10-31T10:36:02.442Z,4.07
2022-10-31T10:38:38.375Z,3.70
2022-10-31T10:41:07.552Z,3.40
2022-10-31T10:43:35.128Z,3.15
2022-10-31T10:46:09.213Z,3.72
2022-10-31T10:48:46.400Z,3.53
2022-10-31T10:52:02.155Z,3.65
2022-10-31T10:54:59.325Z,4.15
2022-10-31T10:57:39.180Z,4.82
2022-10-31T11:00:20.411Z,4.80
2022-10-31T11:02:49.091Z,4.70
2022-10-31T11:05:47.457Z,5.45
2022-10-31T11:08:27.528Z,4.38
2022-10-31T11:11:04.817Z,4.30
2022-10-31T11:13:32.109Z,4.32
2022-10-31T11:15:58.555Z,3.92
2022-10-31T11:18:30.743Z,5.10
2022-10-31T11:20:59.851Z,5.10
2022-10-31T11:23:27.710Z,4.55
2022-10-31T11:25:58.883Z,4.82
2022-10-31T11:28:26.241Z,5.63
2022-10-31T11:30:56.658Z,7.82
2022-10-31T11:33:38.826Z,5.97
2022-10-31T11:36:22.291Z,6.00
2022-10-31T11:38:48.965Z,5.57
2022-10-31T11:41:19.851Z,5.78
2022-10-31T11:43:49.571Z,5.57
2022-10-31T11:46:22.752Z,6.43
2022-10-31T11:48:50.214Z,6.10
2022-10-31T11:51:25.778Z,6.10
2022-10-31T11:53:56.783Z,6.45
2022-10-31T11:56:26.820Z,5.05
2022-10-31T11:59:02.364Z,6.18
2022-10-31T12:04:07.220Z,6.68
2022-10-31T12:06:38.160Z,6.07
2022-10-31T12:09:25.160Z,5.28
2022-10-31T12:12:29.560Z,6.10
2022-10-31T12:15:21.017Z,6.20
2022-10-31T12:18:05.686Z,5.85
2022-10-31T12:20:53.951Z,6.43
2022-10-31T12:23:39.658Z,7.32
2022-10-31T12:26:27.379Z,6.57
2022-10-31T12:29:13.690Z,6.32
2022-10-31T12:31:59.081Z,7.07
2022-10-31T12:34:49.487Z,6.78
2022-10-31T12:37:34.208Z,6.38
2022-10-31T12:40:12.866Z,8.13
2022-10-31T12:42:48.080Z,8.10
2022-10-31T12:45:29.007Z,8.27
2022-10-31T12:48:05.370Z,7.95
2022-10-31T12:51:05.554Z,7.35
2022-10-31T12:53:41.174Z,7.47
2022-10-31T12:56:21.579Z,8.80
2022-10-31T12:59:00.918Z,8.60
2022-10-31T13:01:36.660Z,8.15
2022-10-31T13:04:13.386Z,7.47
2022-10-31T13:06:44.930Z,7.70
2022-10-31T13:09:14.658Z,9.27
2022-10-31T13:11:58.323Z,8.70
2022-10-31T13:14:28.019Z,7.97
2022-10-31T13:16:55.054Z,6.72
2022-10-31T13:19:23.412Z,7.65
2022-10-31T13:22:18.586Z,7.63
2022-10-31T13:25:03.285Z,8.10
2022-10-31T13:27:36.328Z,7.18
2022-10-31T13:30:19.213Z,7.13
2022-10-31T13:32:48.688Z,7.35
2022-10-31T13:35:27.302Z,8.20
2022-10-31T13:38:06.661Z,7.55
2022-10-31T13:40:35.322Z,7.18
2022-10-31T13:43:23.314Z,7.80
2022-10-31T13:45:51.657Z,7.75
2022-10-31T13:48:19.254Z,8.35
2022-10-31T13:51:06.338Z,8.18
2022-10-31T13:53:46.765Z,9.30
2022-10-31T13:56:16.552Z,9.23
2022-10-31T13:59:12.124Z,11.13
2022-10-31T14:01:39.001Z,9.30
2022-10-31T14:04:24.887Z,7.22
2022-10-31T14:07:11.419Z,9.95
2022-10-31T14:09:56.110Z,8.82
2022-10-31T14:12:30.446Z,8.95
2022-10-31T14:15:05.280Z,8.23
2022-10-31T14:17:39.477Z,7.03
2022-10-31T14:20:11.924Z,8.40
2022-10-31T14:22:42.823Z,7.97
2022-10-31T14:25:45.351Z,8.98
2022-10-31T14:28:34.485Z,8.10
2022-10-31T14:31:01.204Z,10.23
2022-10-31T14:33:29.135Z,9.77
2022-10-31T14:36:20.063Z,9.25
2022-10-31T14:39:18.494Z,9.25
2022-10-31T14:42:12.609Z,9.23
2022-10-31T14:44:52.497Z,7.82
2022-10-31T14:48:10.695Z,10.20
2022-10-31T14:50:55.759Z,9.23
2022-10-31T14:53:23.606Z,10.20
2022-10-31T14:55:51.499Z,9.10
2022-10-31T14:58:21.455Z,8.95
2022-10-31T15:00:48.723Z,9.95
2022-10-31T15:03:18.252Z,9.18
2022-10-31T15:05:53.394Z,8.65
2022-10-31T15:08:46.979Z,7.13
2022-10-31T15:11:15.662Z,7.05
2022-10-31T15:13:55.437Z,6.18
2022-10-31T15:16:33.427Z,7.90
2022-10-31T15:19:01.557Z,8.48
2022-10-31T15:21:29.348Z,6.60
2022-10-31T15:23:58.800Z,7.88
2022-10-31T15:26:32.047Z,5.47
2022-10-31T15:29:05.932Z,9.18
2022-10-31T15:31:32.800Z,8.88
2022-10-31T15:34:06.699Z,7.05
2022-10-31T15:36:37.299Z,7.53
2022-10-31T15:39:04.980Z,7.47
2022-10-31T15:41:33.311Z,8.32
2022-10-31T15:44:07.482Z,6.85
2022-10-31T15:46:34.124Z,5.68
2022-10-31T15:49:00.760Z,5.82
2022-10-31T15:51:32.131Z,6.10
2022-10-31T15:53:58.881Z,7.10
2022-10-31T15:56:28.385Z,6.53
2022-10-31T15:58:55.452Z,5.78
2022-10-31T16:01:28.826Z,6.15
2022-10-31T16:04:02.860Z,7.03
2022-10-31T16:06:29.664Z,5.68
2022-10-31T16:08:56.292Z,5.13
2022-10-31T16:11:37.866Z,4.82
2022-10-31T16:14:07.403Z,4.82
2022-10-31T16:16:36.247Z,6.15
2022-10-31T16:19:04.870Z,5.70
2022-10-31T16:21:36.727Z,6.60
2022-10-31T16:24:21.450Z,7.05
2022-10-31T16:26:52.330Z,6.70
2022-10-31T16:29:49.463Z,6.70
2022-10-31T16:32:36.315Z,5.78
2022-10-31T16:35:02.812Z,5.20
2022-10-31T16:37:29.554Z,5.47
2022-10-31T16:39:56.248Z,5.68
2022-10-31T16:42:22.928Z,5.47
2022-10-31T16:44:49.581Z,6.68
2022-10-31T16:47:17.123Z,7.32
2022-10-31T16:49:44.315Z,5.05
2022-10-31T16:52:10.988Z,5.00
2022-10-31T16:54:37.688Z,6.22
2022-10-31T16:57:04.992Z,6.38
2022-10-31T16:59:32.295Z,5.78
2022-10-31T17:01:59.060Z,6.65
2022-10-31T17:04:26.118Z,5.60
2022-10-31T17:06:52.761Z,5.45
2022-10-31T17:09:19.509Z,6.50
2022-10-31T17:11:49.790Z,5.65
2022-10-31T17:14:17.500Z,6.15
2022-10-31T17:16:44.143Z,6.13
2022-10-31T17:19:11.640Z,4.78
2022-10-31T17:21:38.289Z,5.72
2022-10-31T17:24:05.096Z,5.43
2022-10-31T17:26:31.749Z,4.53
2022-10-31T17:28:58.319Z,4.63
2022-10-31T17:31:29.418Z,5.35
2022-10-31T17:34:02.132Z,4.45
2022-10-31T17:36:32.147Z,4.32
2022-10-31T17:38:58.770Z,4.03
2022-10-31T17:41:25.466Z,5.50
2022-10-31T17:43:56.295Z,6.00
2022-10-31T17:46:22.908Z,6.05
2022-10-31T17:48:49.575Z,5.45
2022-10-31T17:51:16.256Z,4.13
2022-10-31T17:53:43.114Z,5.30
2022-10-31T17:56:10.493Z,4.90
2022-10-31T17:58:37.199Z,5.18
2022-10-31T18:01:08.750Z,4.88
2022-10-31T18:03:35.486Z,4.70
2022-10-31T18:06:02.133Z,4.13
2022-10-31T18:08:33.345Z,5.28
2022-10-31T18:11:00.253Z,5.50
2022-10-31T18:13:27.715Z,4.65
2022-10-31T18:15:54.763Z,5.35
2022-10-31T18:18:21.691Z,4.53
2022-10-31T18:20:48.311Z,4.97
2022-10-31T18:23:14.946Z,4.88
2022-10-31T18:25:41.525Z,4.40
2022-10-31T18:28:08.316Z,4.65
2022-10-31T18:30:34.970Z,4.63
2022-10-31T18:33:01.672Z,4.28
2022-10-31T18:35:28.525Z,4.13
2022-10-31T18:37:56.910Z,4.63
2022-10-31T18:40:25.911Z,4.90
2022-10-31T18:42:53.702Z,4.93
2022-10-31T18:45:33.847Z,4.32
2022-10-31T18:48:06.932Z,4.00
2022-10-31T18:50:33.683Z,4.07
2022-10-31T18:53:00.672Z,3.90
2022-10-31T18:55:27.480Z,4.55
2022-10-31T18:57:54.962Z,4.18
2022-10-31T19:00:21.657Z,4.60
2022-10-31T19:02:48.285Z,4.57
2022-10-31T19:05:14.915Z,5.00
2022-10-31T19:07:41.622Z,4.63
2022-10-31T19:10:08.662Z,3.92
2022-10-31T19:12:35.232Z,3.55
2022-10-31T19:15:01.896Z,3.50
2022-10-31T19:17:28.565Z,3.83
2022-10-31T19:19:55.155Z,3.92
2022-10-31T19:22:21.843Z,4.30
2022-10-31T19:24:48.403Z,3.90
2022-10-31T19:27:15.324Z,4.18
2022-10-31T19:29:41.915Z,4.30
2022-10-31T19:32:08.841Z,4.40
2022-10-31T19:34:35.460Z,4.00
2022-10-31T19:37:02.098Z,4.22
2022-10-31T19:39:28.692Z,4.25
2022-10-31T19:41:55.743Z,4.63
2022-10-31T19:44:22.474Z,4.15
2022-10-31T19:46:53.668Z,4.07
2022-10-31T19:49:20.566Z,4.25
2022-10-31T19:51:47.279Z,4.63
2022-10-31T19:54:13.976Z,5.60
2022-10-31T19:56:40.697Z,4.85
2022-10-31T19:59:07.480Z,4.70
2022-10-31T20:01:34.231Z,4.68
2022-10-31T20:04:00.852Z,5.55
2022-10-31T20:06:29.152Z,4.85
2022-10-31T20:08:56.007Z,4.43
2022-10-31T20:11:24.235Z,4.30
2022-10-31T20:13:51.016Z,3.75
2022-10-31T20:16:17.696Z,4.00
2022-10-31T20:18:45.494Z,4.50
2022-10-31T20:21:23.823Z,4.32
2022-10-31T20:23:57.006Z,4.97
2022-10-31T20:26:23.826Z,4.57
2022-10-31T20:28:50.546Z,4.47
2022-10-31T20:31:19.879Z,4.45
2022-10-31T20:33:47.242Z,4.60
2022-10-31T20:36:14.547Z,3.70
2022-10-31T20:38:42.074Z,4.88
2022-10-31T20:41:09.829Z,4.32
2022-10-31T20:43:36.598Z,5.03
2022-10-31T20:46:07.803Z,4.90
2022-10-31T20:48:35.694Z,4.28
2022-10-31T20:51:03.996Z,4.97
2022-10-31T20:53:32.044Z,5.07
2022-10-31T20:56:07.481Z,5.10
2022-10-31T20:58:35.304Z,5.13
2022-10-31T21:01:02.137Z,4.82
2022-10-31T21:03:28.963Z,4.47
2022-10-31T21:05:57.266Z,4.45
2022-10-31T21:08:23.949Z,5.05
2022-10-31T21:10:50.755Z,5.05
2022-10-31T21:13:17.487Z,5.38
2022-10-31T21:15:44.131Z,4.38
2022-10-31T21:18:10.884Z,5.10
2022-10-31T21:20:41.686Z,4.10
2022-10-31T21:23:08.297Z,4.00
2022-10-31T21:25:38.078Z,4.20
2022-10-31T21:28:04.795Z,4.32
2022-10-31T21:30:31.574Z,4.57
2022-10-31T21:32:58.202Z,4.78
2022-10-31T21:35:25.286Z,5.03
2022-10-31T21:37:51.982Z,5.05
2022-10-31T21:40:18.585Z,4.57
2022-10-31T21:42:45.270Z,4.40
2022-10-31T21:45:11.864Z,4.47
2022-10-31T21:47:38.481Z,4.43
2022-10-31T21:50:06.681Z,4.38
2022-10-31T21:52:34.451Z,4.57
2022-10-31T21:55:01.094Z,4.07
2022-10-31T21:57:27.715Z,3.75
2022-10-31T21:59:54.327Z,3.88
2022-10-31T22:02:21.031Z,4.45
2022-10-31T22:04:47.630Z,4.47
2022-10-31T22:07:14.208Z,4.78
2022-10-31T22:09:41.628Z,4.43
2022-10-31T22:12:08.257Z,3.90
2022-10-31T22:14:34.927Z,4.22
2022-10-31T22:17:01.766Z,3.90
2022-10-31T22:19:28.321Z,4.45
2022-10-31T22:21:54.930Z,3.92
2022-10-31T22:24:21.600Z,3.53
2022-10-31T22:26:48.277Z,3.88
2022-10-31T22:29:20.581Z,4.32
2022-10-31T22:31:50.620Z,4.30
2022-10-31T22:34:20.189Z,4.70
2022-10-31T22:36:46.847Z,4.28
2022-10-31T22:39:13.425Z,4.13
2022-10-31T22:41:40.076Z,4.57
2022-10-31T22:44:06.780Z,5.00
2022-10-31T22:46:35.291Z,5.05
2022-10-31T22:49:04.371Z,5.50
2022-10-31T22:51:33.588Z,4.57
2022-10-31T22:54:00.259Z,4.88
2022-10-31T22:56:29.253Z,4.40
2022-10-31T22:58:55.895Z,4.43
2022-10-31T23:01:28.390Z,3.53
2022-10-31T23:03:55.155Z,3.40
2022-10-31T23:06:24.562Z,3.90
2022-10-31T23:08:51.451Z,4.65
2022-10-31T23:11:22.735Z,4.97
2022-10-31T23:13:50.712Z,4.45
2022-10-31T23:16:17.463Z,3.58
2022-10-31T23:18:50.247Z,4.47
2022-10-31T23:21:17.418Z,3.72
2022-10-31T23:23:44.054Z,4.28
2022-10-31T23:26:10.622Z,4.05
2022-10-31T23:28:37.271Z,4.22
2022-10-31T23:31:03.916Z,3.25
2022-10-31T23:33:31.536Z,3.28
2022-10-31T23:35:59.322Z,3.03
2022-10-31T23:38:26.355Z,3.40
2022-10-31T23:40:53.279Z,3.60
2022-10-31T23:43:20.219Z,4.28
2022-10-31T23:45:46.754Z,3.50
2022-10-31T23:48:13.670Z,4.20
2022-10-31T23:50:40.294Z,4.32
2022-10-31T23:53:08.415Z,3.97
2022-10-31T23:55:35.091Z,3.38
2022-10-31T23:58:01.827Z,3.47
